Time;durP1;ratioP1;P1;durP2;ratioP2;P2;SDS_P1;SDS_P2;PMS_P1;PMS_P2;Temp;Humidity;BMP_temperature;BMP_pressure;BME280_temperature;BME280_humidity;BME280_pressure;Samples;Min_cycle;Max_cycle;Signal;HPM_P1;HPM_P2
2023/04/20 00:01:48;;;;;;;1.37;1.00;;;;;;;;;;5090531;28;20491;-65
2023/04/20 00:04:16;;;;;;;2.03;1.73;;;;;;;;;;5090447;28;20453;-65
2023/04/20 00:06:44;;;;;;;1.90;1.30;;;;;;;;;;5090190;28;20444;-65
2023/04/20 00:09:12;;;;;;;3.03;1.47;;;;;;;;;;5091377;28;20454;-66
2023/04/20 00:11:40;;;;;;;1.63;1.53;;;;;;;;;;5090972;28;20512;-65
2023/04/20 00:14:08;;;;;;;1.00;0.90;;;;;;;;;;5090755;28;20811;-65
2023/04/20 00:16:35;;;;;;;1.43;1.30;;;;;;;;;;5090774;28;20788;-65
2023/04/20 00:19:03;;;;;;;1.90;1.33;;;;;;;;;;5090326;28;20478;-65
2023/04/20 00:21:30;;;;;;;1.80;1.13;;;;;;;;;;5090546;28;20488;-65
2023/04/20 00:23:57;;;;;;;0.90;0.90;;;;;;;;;;5090013;28;20470;-65
2023/04/20 00:26:25;;;;;;;3.20;1.40;;;;;;;;;;5090730;28;20453;-65
2023/04/20 00:28:52;;;;;;;2.10;1.13;;;;;;;;;;5090473;28;20459;-65
2023/04/20 00:31:19;;;;;;;7.20;1.43;;;;;;;;;;5090570;28;20453;-65
2023/04/20 00:33:47;;;;;;;2.50;1.77;;;;;;;;;;5090251;28;20512;-65
2023/04/20 00:36:16;;;;;;;1.50;1.40;;;;;;;;;;5090732;28;20443;-65
2023/04/20 00:38:43;;;;;;;0.90;0.80;;;;;;;;;;5090026;28;20454;-65
2023/04/20 00:41:10;;;;;;;2.40;1.27;;;;;;;;;;5090729;28;20459;-65
2023/04/20 00:43:37;;;;;;;3.53;1.40;;;;;;;;;;5094879;28;20442;-65
2023/04/20 00:46:05;;;;;;;2.10;1.90;;;;;;;;;;5097089;28;20485;-65
2023/04/20 00:48:32;;;;;;;1.77;1.57;;;;;;;;;;5097066;28;20450;-65
2023/04/20 00:50:59;;;;;;;1.20;1.10;;;;;;;;;;5096753;28;20454;-65
2023/04/20 00:53:27;;;;;;;1.50;1.30;;;;;;;;;;5097022;28;20448;-65
2023/04/20 00:55:55;;;;;;;4.50;1.70;;;;;;;;;;5096917;28;20462;-65
2023/04/20 00:58:22;;;;;;;1.00;0.90;;;;;;;;;;5097104;28;20483;-65
2023/04/20 01:00:49;;;;;;;1.50;1.40;;;;;;;;;;5096869;28;20803;-65
2023/04/20 01:03:16;;;;;;;2.70;1.07;;;;;;;;;;5096696;28;20480;-65
2023/04/20 01:05:44;;;;;;;1.40;1.10;;;;;;;;;;5096487;28;20907;-65
2023/04/20 01:08:11;;;;;;;1.03;0.93;;;;;;;;;;5097398;28;20814;-68
2023/04/20 01:10:40;;;;;;;1.53;1.30;;;;;;;;;;5097168;28;20965;-65
2023/04/20 01:13:07;;;;;;;1.67;1.27;;;;;;;;;;5096975;28;20471;-65
2023/04/20 01:15:34;;;;;;;4.43;1.30;;;;;;;;;;5097302;28;20835;-65
2023/04/20 01:18:01;;;;;;;3.07;1.97;;;;;;;;;;5096409;28;20867;-65
2023/04/20 01:20:29;;;;;;;3.87;1.70;;;;;;;;;;5097014;28;20482;-65
2023/04/20 01:22:57;;;;;;;3.47;1.77;;;;;;;;;;5095973;28;20482;-65
2023/04/20 01:25:24;;;;;;;3.43;1.73;;;;;;;;;;5096911;28;20894;-65
2023/04/20 01:27:51;;;;;;;1.17;1.00;;;;;;;;;;5096616;28;20457;-64
2023/04/20 01:30:18;;;;;;;1.00;0.80;;;;;;;;;;5096949;28;20440;-65
2023/04/20 01:32:47;;;;;;;1.73;1.20;;;;;;;;;;5096448;28;20540;-65
2023/04/20 01:35:14;;;;;;;2.00;1.70;;;;;;;;;;5097071;28;20790;-65
2023/04/20 01:37:42;;;;;;;1.23;1.10;;;;;;;;;;5096712;28;20506;-73
2023/04/20 01:40:12;;;;;;;1.20;1.10;;;;;;;;;;5096906;28;20445;-67
2023/04/20 01:42:39;;;;;;;2.40;1.97;;;;;;;;;;5096806;28;20480;-65
2023/04/20 01:45:07;;;;;;;1.30;1.17;;;;;;;;;;5096525;28;20951;-65
2023/04/20 01:47:34;;;;;;;1.17;1.07;;;;;;;;;;5096601;28;20453;-65
2023/04/20 01:50:02;;;;;;;1.10;1.00;;;;;;;;;;5096649;28;20735;-65
2023/04/20 01:52:29;;;;;;;7.10;1.50;;;;;;;;;;5096343;28;20517;-65
2023/04/20 01:54:56;;;;;;;1.00;0.90;;;;;;;;;;5092475;28;20535;-65
2023/04/20 01:57:24;;;;;;;1.20;1.10;;;;;;;;;;5093662;28;20453;-65
2023/04/20 01:59:51;;;;;;;1.10;0.80;;;;;;;;;;5092714;28;20478;-65
2023/04/20 02:02:18;;;;;;;1.77;1.60;;;;;;;;;;5093276;28;20478;-65
2023/04/20 02:04:45;;;;;;;4.83;2.03;;;;;;;;;;5092218;28;20453;-65
2023/04/20 02:07:13;;;;;;;1.30;0.93;;;;;;;;;;5093206;28;20441;-65
2023/04/20 02:09:40;;;;;;;4.93;1.43;;;;;;;;;;5093008;28;20454;-65
2023/04/20 02:12:07;;;;;;;1.20;1.10;;;;;;;;;;5093541;28;20464;-65
2023/04/20 02:14:35;;;;;;;1.13;0.73;;;;;;;;;;5092512;28;20444;-66
2023/04/20 02:17:03;;;;;;;1.93;1.57;;;;;;;;;;5092232;28;20498;-65
2023/04/20 02:19:30;;;;;;;1.60;1.00;;;;;;;;;;5092908;28;20460;-65
2023/04/20 02:21:57;;;;;;;1.37;1.27;;;;;;;;;;5092363;28;20815;-66
2023/04/20 02:24:24;;;;;;;1.07;0.97;;;;;;;;;;5092459;28;20543;-65
2023/04/20 02:26:51;;;;;;;4.93;1.33;;;;;;;;;;5092394;28;20441;-65
2023/04/20 02:29:18;;;;;;;4.30;1.33;;;;;;;;;;5092447;28;20448;-65
2023/04/20 02:31:47;;;;;;;1.73;1.43;;;;;;;;;;5092211;28;20591;-65
2023/04/20 02:34:14;;;;;;;1.17;1.07;;;;;;;;;;5092543;28;20453;-64
2023/04/20 02:36:41;;;;;;;1.43;1.33;;;;;;;;;;5092996;28;20508;-73
2023/04/20 02:39:09;;;;;;;1.57;1.20;;;;;;;;;;5092831;28;20457;-64
2023/04/20 02:41:36;;;;;;;1.40;1.27;;;;;;;;;;5092863;28;21810;-65
2023/04/20 02:44:03;;;;;;;2.07;1.87;;;;;;;;;;5091218;28;20476;-66
2023/04/20 02:46:30;;;;;;;1.20;1.10;;;;;;;;;;5092780;28;20521;-65
2023/04/20 02:48:59;;;;;;;0.80;0.70;;;;;;;;;;5091954;28;20455;-65
2023/04/20 02:51:26;;;;;;;1.47;1.20;;;;;;;;;;5092525;28;20505;-65
2023/04/20 02:53:53;;;;;;;0.90;0.80;;;;;;;;;;5090974;28;20459;-65
2023/04/20 02:56:21;;;;;;;1.20;0.70;;;;;;;;;;5092440;28;20457;-65
2023/04/20 02:58:50;;;;;;;2.27;1.50;;;;;;;;;;5091696;28;20489;-65
2023/04/20 03:01:18;;;;;;;1.90;1.40;;;;;;;;;;5092297;28;20471;-65
2023/04/20 03:03:45;;;;;;;1.63;1.40;;;;;;;;;;5091465;28;20982;-65
2023/04/20 03:06:13;;;;;;;2.40;1.40;;;;;;;;;;5092129;28;20447;-68
2023/04/20 03:08:41;;;;;;;1.30;0.90;;;;;;;;;;5092299;28;20489;-65
2023/04/20 03:11:08;;;;;;;1.73;0.93;;;;;;;;;;5092028;28;20454;-65
2023/04/20 03:13:35;;;;;;;2.03;0.90;;;;;;;;;;5091790;28;20459;-69
2023/04/20 03:16:03;;;;;;;1.20;1.00;;;;;;;;;;5080833;28;20479;-65
2023/04/20 03:18:30;;;;;;;1.47;1.37;;;;;;;;;;5092126;28;20848;-65
2023/04/20 03:20:57;;;;;;;1.17;0.90;;;;;;;;;;5091184;28;20475;-65
2023/04/20 03:23:27;;;;;;;4.30;1.77;;;;;;;;;;5091445;28;20840;-65
2023/04/20 03:25:54;;;;;;;1.20;1.03;;;;;;;;;;5090896;28;20465;-65
2023/04/20 03:28:21;;;;;;;1.77;0.90;;;;;;;;;;5091853;28;20455;-65
2023/04/20 03:30:48;;;;;;;3.00;1.47;;;;;;;;;;5091275;28;20442;-65
2023/04/20 03:33:15;;;;;;;0.80;0.70;;;;;;;;;;5090972;28;20934;-65
2023/04/20 03:35:42;;;;;;;0.90;0.80;;;;;;;;;;5091337;28;20449;-66
2023/04/20 03:38:10;;;;;;;1.07;0.97;;;;;;;;;;5091851;28;20886;-65
2023/04/20 03:40:38;;;;;;;2.03;1.50;;;;;;;;;;5091720;28;20444;-65
2023/04/20 03:43:05;;;;;;;0.70;0.67;;;;;;;;;;5090389;28;20476;-65
2023/04/20 03:45:32;;;;;;;2.10;1.63;;;;;;;;;;5091267;28;20989;-65
2023/04/20 03:48:00;;;;;;;1.47;1.37;;;;;;;;;;5091063;28;20467;-65
2023/04/20 03:50:27;;;;;;;0.80;0.80;;;;;;;;;;5091405;28;20459;-65
2023/04/20 03:52:54;;;;;;;2.20;0.87;;;;;;;;;;5090399;28;20461;-65
2023/04/20 03:55:21;;;;;;;1.00;0.90;;;;;;;;;;5091215;28;20460;-68
2023/04/20 03:57:50;;;;;;;1.40;1.00;;;;;;;;;;5090976;28;20449;-65
2023/04/20 04:00:17;;;;;;;1.77;1.30;;;;;;;;;;5091108;28;20452;-66
2023/04/20 04:02:44;;;;;;;1.37;0.90;;;;;;;;;;5090364;28;20478;-65
2023/04/20 04:05:11;;;;;;;0.80;0.70;;;;;;;;;;5091138;28;20447;-68
2023/04/20 04:07:38;;;;;;;2.00;1.57;;;;;;;;;;5091103;28;20870;-65
2023/04/20 04:10:06;;;;;;;1.27;1.17;;;;;;;;;;5090775;28;20445;-65
2023/04/20 04:12:33;;;;;;;1.00;0.63;;;;;;;;;;5090832;28;20448;-68
2023/04/20 04:15:02;;;;;;;0.97;0.87;;;;;;;;;;5090479;28;20441;-65
2023/04/20 04:17:29;;;;;;;1.10;1.00;;;;;;;;;;5090574;28;20448;-65
2023/04/20 04:19:56;;;;;;;2.40;1.53;;;;;;;;;;5089702;28;20454;-65
2023/04/20 04:22:23;;;;;;;1.13;1.00;;;;;;;;;;5090841;28;20843;-65
2023/04/20 04:24:50;;;;;;;1.97;1.27;;;;;;;;;;5089848;28;20445;-65
2023/04/20 04:27:18;;;;;;;8.20;1.37;;;;;;;;;;5090376;28;20455;-65
2023/04/20 04:29:46;;;;;;;1.10;1.00;;;;;;;;;;5089727;28;20448;-65
2023/04/20 04:32:14;;;;;;;1.27;1.13;;;;;;;;;;5090575;28;20456;-66
2023/04/20 04:34:43;;;;;;;1.33;0.97;;;;;;;;;;5089538;28;21001;-73
2023/04/20 04:37:10;;;;;;;3.33;2.20;;;;;;;;;;5090989;28;20868;-65
2023/04/20 04:39:37;;;;;;;3.30;2.00;;;;;;;;;;5090178;28;20927;-65
2023/04/20 04:42:05;;;;;;;1.00;0.90;;;;;;;;;;5090281;28;20444;-67
2023/04/20 04:44:32;;;;;;;2.80;1.20;;;;;;;;;;5089841;28;20591;-65
2023/04/20 04:47:01;;;;;;;1.10;1.00;;;;;;;;;;5088046;28;20437;-67
2023/04/20 04:49:29;;;;;;;1.50;1.13;;;;;;;;;;5090564;28;20941;-64
2023/04/20 04:51:56;;;;;;;1.13;1.03;;;;;;;;;;5089772;28;20448;-65
2023/04/20 04:54:23;;;;;;;1.87;1.03;;;;;;;;;;5089539;28;20454;-65
2023/04/20 04:56:51;;;;;;;4.00;1.33;;;;;;;;;;5098728;28;20443;-66
2023/04/20 04:59:18;;;;;;;2.00;1.80;;;;;;;;;;5092950;28;20440;-65
2023/04/20 05:01:45;;;;;;;2.63;1.47;;;;;;;;;;5089918;28;20444;-64
2023/04/20 05:04:12;;;;;;;1.43;1.27;;;;;;;;;;5090010;28;20477;-68
2023/04/20 05:06:41;;;;;;;2.07;1.27;;;;;;;;;;5090667;28;20441;-65
2023/04/20 05:09:08;;;;;;;4.97;2.70;;;;;;;;;;5090693;28;20449;-65
2023/04/20 05:11:35;;;;;;;1.37;1.27;;;;;;;;;;5087380;28;20551;-65
2023/04/20 05:14:02;;;;;;;1.60;1.00;;;;;;;;;;5089332;28;20458;-66
2023/04/20 05:16:29;;;;;;;1.63;1.17;;;;;;;;;;5090097;28;20455;-65
2023/04/20 05:18:56;;;;;;;2.73;1.17;;;;;;;;;;5089027;28;20467;-65
2023/04/20 05:21:23;;;;;;;1.97;1.77;;;;;;;;;;5090375;28;20483;-64
2023/04/20 05:23:52;;;;;;;2.73;1.43;;;;;;;;;;5088972;28;20491;-66
2023/04/20 05:26:19;;;;;;;2.33;2.10;;;;;;;;;;5088793;28;20955;-66
2023/04/20 05:28:46;;;;;;;1.63;1.20;;;;;;;;;;5090107;28;20484;-66
2023/04/20 05:31:13;;;;;;;1.63;1.53;;;;;;;;;;5093884;28;20810;-66
2023/04/20 05:33:41;;;;;;;3.33;1.47;;;;;;;;;;5093901;28;20452;-66
2023/04/20 05:36:09;;;;;;;1.63;1.20;;;;;;;;;;5093708;28;20444;-65
2023/04/20 05:38:36;;;;;;;1.13;1.03;;;;;;;;;;5094041;28;20444;-66
2023/04/20 05:41:05;;;;;;;1.27;1.17;;;;;;;;;;5093207;28;20451;-68
2023/04/20 05:43:32;;;;;;;1.93;1.37;;;;;;;;;;5093716;28;20887;-66
2023/04/20 05:45:59;;;;;;;3.03;1.70;;;;;;;;;;5092842;28;20447;-65
2023/04/20 05:48:26;;;;;;;2.00;1.17;;;;;;;;;;5093596;28;20979;-65
2023/04/20 05:50:53;;;;;;;2.13;1.43;;;;;;;;;;5093182;28;20502;-65
2023/04/20 05:53:21;;;;;;;1.10;1.00;;;;;;;;;;5093578;28;20939;-66
2023/04/20 05:55:48;;;;;;;2.40;2.00;;;;;;;;;;5092341;28;20452;-65
2023/04/20 05:58:17;;;;;;;2.10;2.00;;;;;;;;;;5083704;28;20449;-66
2023/04/20 06:00:44;;;;;;;2.20;1.90;;;;;;;;;;5091759;28;20950;-66
2023/04/20 06:03:12;;;;;;;1.60;1.50;;;;;;;;;;5093686;28;20483;-68
2023/04/20 06:05:39;;;;;;;7.63;3.60;;;;;;;;;;5091996;28;20453;-68
2023/04/20 06:08:06;;;;;;;3.17;1.87;;;;;;;;;;5092954;28;20449;-65
2023/04/20 06:10:33;;;;;;;3.00;2.57;;;;;;;;;;5093423;28;20533;-65
2023/04/20 06:13:00;;;;;;;3.43;2.63;;;;;;;;;;5092530;28;20442;-66
2023/04/20 06:15:29;;;;;;;3.53;3.23;;;;;;;;;;5091951;28;20466;-66
2023/04/20 06:17:56;;;;;;;4.53;2.43;;;;;;;;;;5091710;28;20447;-65
2023/04/20 06:20:23;;;;;;;2.30;1.97;;;;;;;;;;5092773;28;20484;-64
2023/04/20 06:22:50;;;;;;;3.87;2.03;;;;;;;;;;5092549;28;20444;-65
2023/04/20 06:25:17;;;;;;;3.07;2.53;;;;;;;;;;5090068;28;20494;-67
2023/04/20 06:27:45;;;;;;;2.87;2.13;;;;;;;;;;5093059;28;20784;-66
2023/04/20 06:30:13;;;;;;;3.07;2.77;;;;;;;;;;5079414;28;20467;-67
2023/04/20 06:32:41;;;;;;;2.30;1.57;;;;;;;;;;5086190;28;20943;-67
2023/04/20 06:35:09;;;;;;;8.87;3.20;;;;;;;;;;5092568;28;20448;-66
2023/04/20 06:37:36;;;;;;;5.27;2.60;;;;;;;;;;5092750;28;20933;-66
2023/04/20 06:40:06;;;;;;;2.07;1.80;;;;;;;;;;5091790;28;20452;-67
2023/04/20 06:42:33;;;;;;;3.20;2.40;;;;;;;;;;5092577;28;20465;-66
2023/04/20 06:45:00;;;;;;;1.93;1.73;;;;;;;;;;5092010;28;20510;-64
2023/04/20 06:47:30;;;;;;;5.40;3.00;;;;;;;;;;5092410;28;20448;-66
2023/04/20 06:49:59;;;;;;;3.33;2.70;;;;;;;;;;5092234;28;20873;-66
2023/04/20 06:52:26;;;;;;;6.10;2.30;;;;;;;;;;5092481;28;20456;-66
2023/04/20 06:54:53;;;;;;;3.33;2.27;;;;;;;;;;5091520;28;20467;-65
2023/04/20 06:57:20;;;;;;;1.80;1.63;;;;;;;;;;5092538;28;20444;-66
2023/04/20 06:59:47;;;;;;;3.97;2.90;;;;;;;;;;5092071;28;20855;-66
2023/04/20 07:02:14;;;;;;;4.07;2.80;;;;;;;;;;5092383;28;20453;-66
2023/04/20 07:04:42;;;;;;;3.60;2.30;;;;;;;;;;5091647;28;20476;-72
2023/04/20 07:07:10;;;;;;;3.77;2.87;;;;;;;;;;5092424;28;20445;-65
2023/04/20 07:09:37;;;;;;;5.20;2.00;;;;;;;;;;5092688;28;20440;-66
2023/04/20 07:12:04;;;;;;;2.50;2.00;;;;;;;;;;5091665;28;20444;-66
2023/04/20 07:14:31;;;;;;;4.83;2.73;;;;;;;;;;5092042;28;20457;-66
2023/04/20 07:16:58;;;;;;;3.00;2.70;;;;;;;;;;5091442;28;20456;-66
2023/04/20 07:19:25;;;;;;;3.53;2.33;;;;;;;;;;5092283;28;20819;-66
2023/04/20 07:21:53;;;;;;;4.20;3.10;;;;;;;;;;5091720;28;20477;-66
2023/04/20 07:24:21;;;;;;;6.97;2.47;;;;;;;;;;5091813;28;20488;-66
2023/04/20 07:26:48;;;;;;;2.97;2.63;;;;;;;;;;5090890;28;20448;-66
2023/04/20 07:29:15;;;;;;;3.37;2.87;;;;;;;;;;5092175;28;20874;-66
2023/04/20 07:31:42;;;;;;;2.80;2.40;;;;;;;;;;5091424;28;20476;-67
2023/04/20 07:34:10;;;;;;;3.67;2.90;;;;;;;;;;5092374;28;20970;-66
2023/04/20 07:36:37;;;;;;;4.07;2.73;;;;;;;;;;5091587;28;20453;-66
2023/04/20 07:39:05;;;;;;;4.50;3.30;;;;;;;;;;5091445;28;20448;-66
2023/04/20 07:41:33;;;;;;;3.17;2.40;;;;;;;;;;5091402;28;20486;-66
2023/04/20 07:44:00;;;;;;;3.73;3.07;;;;;;;;;;5091349;28;20491;-66
2023/04/20 07:46:28;;;;;;;4.70;3.43;;;;;;;;;;5091314;28;20752;-66
2023/04/20 07:48:55;;;;;;;4.10;2.33;;;;;;;;;;5091211;28;20452;-66
2023/04/20 07:51:22;;;;;;;3.07;2.10;;;;;;;;;;5091336;28;20924;-66
2023/04/20 07:53:49;;;;;;;3.77;2.17;;;;;;;;;;5090186;28;20445;-66
2023/04/20 07:56:16;;;;;;;3.80;2.90;;;;;;;;;;5091079;28;20482;-66
2023/04/20 07:58:45;;;;;;;3.93;3.63;;;;;;;;;;5090994;28;20814;-66
2023/04/20 08:01:12;;;;;;;3.00;2.10;;;;;;;;;;5091706;28;20445;-67
2023/04/20 08:03:40;;;;;;;2.70;2.33;;;;;;;;;;5091179;28;20455;-66
2023/04/20 08:06:07;;;;;;;2.20;2.00;;;;;;;;;;5091183;28;20491;-66
2023/04/20 08:08:34;;;;;;;3.27;2.63;;;;;;;;;;5090963;28;20444;-67
2023/04/20 08:11:01;;;;;;;4.57;2.57;;;;;;;;;;5091192;28;20985;-67
2023/04/20 08:13:29;;;;;;;3.37;2.83;;;;;;;;;;5091755;28;20449;-66
2023/04/20 08:15:58;;;;;;;3.83;2.20;;;;;;;;;;5090783;28;20452;-66
2023/04/20 08:18:25;;;;;;;2.27;2.07;;;;;;;;;;5091741;28;20444;-66
2023/04/20 08:20:52;;;;;;;3.73;2.47;;;;;;;;;;5090892;28;20472;-66
2023/04/20 08:23:19;;;;;;;4.80;3.40;;;;;;;;;;5091062;28;20452;-66
2023/04/20 08:25:46;;;;;;;3.03;2.47;;;;;;;;;;5090530;28;20476;-66
2023/04/20 08:28:13;;;;;;;3.27;2.80;;;;;;;;;;5091312;28;20452;-66
2023/04/20 08:30:41;;;;;;;2.30;1.87;;;;;;;;;;5091764;28;20799;-66
2023/04/20 08:33:09;;;;;;;2.80;2.50;;;;;;;;;;5091543;28;20449;-66
2023/04/20 08:35:36;;;;;;;2.80;2.50;;;;;;;;;;5091452;28;20448;-67
2023/04/20 08:38:03;;;;;;;3.67;2.30;;;;;;;;;;5090969;28;20449;-68
2023/04/20 08:40:31;;;;;;;4.57;2.77;;;;;;;;;;5091280;28;20447;-66
2023/04/20 08:42:58;;;;;;;4.50;3.00;;;;;;;;;;5090804;28;20444;-66
2023/04/20 08:45:25;;;;;;;4.37;2.73;;;;;;;;;;5090565;28;20992;-66
2023/04/20 08:47:52;;;;;;;2.87;2.50;;;;;;;;;;5090385;28;20456;-66
2023/04/20 08:50:21;;;;;;;4.63;3.40;;;;;;;;;;5091435;28;20919;-66
2023/04/20 08:52:48;;;;;;;4.10;2.30;;;;;;;;;;5090760;28;20537;-66
2023/04/20 08:55:16;;;;;;;9.40;2.63;;;;;;;;;;5090459;28;20459;-66
2023/04/20 08:57:43;;;;;;;4.43;1.80;;;;;;;;;;5090240;28;20452;-66
2023/04/20 09:00:11;;;;;;;4.27;2.47;;;;;;;;;;5091441;28;20448;-66
2023/04/20 09:02:48;;;;;;;5.63;3.30;;;;;;;;;;5091099;28;20453;-66
2023/04/20 09:05:15;;;;;;;2.23;2.10;;;;;;;;;;5094204;28;20871;-66
2023/04/20 09:07:51;;;;;;;2.40;1.87;;;;;;;;;;5094926;28;20449;-66
2023/04/20 09:10:18;;;;;;;5.37;2.87;;;;;;;;;;5095130;28;20908;-66
2023/04/20 09:12:45;;;;;;;3.17;2.17;;;;;;;;;;5094726;28;20445;-66
2023/04/20 09:15:24;;;;;;;3.83;3.00;;;;;;;;;;5094701;28;20811;-66
2023/04/20 09:17:51;;;;;;;8.00;3.20;;;;;;;;;;5094764;28;20780;-66
2023/04/20 09:20:27;;;;;;;5.20;2.20;;;;;;;;;;5094902;28;20477;-66
2023/04/20 09:22:55;;;;;;;4.40;2.97;;;;;;;;;;5094128;28;20444;-66
2023/04/20 09:25:25;;;;;;;3.57;2.93;;;;;;;;;;5094244;28;20491;-67
2023/04/20 09:27:56;;;;;;;3.33;3.03;;;;;;;;;;5094002;28;20531;-67
2023/04/20 09:30:23;;;;;;;3.67;2.60;;;;;;;;;;5081683;28;20455;-67
2023/04/20 09:33:02;;;;;;;3.37;2.90;;;;;;;;;;5093688;28;20490;-67
2023/04/20 09:35:29;;;;;;;3.57;2.60;;;;;;;;;;5094419;28;20826;-66
2023/04/20 09:37:58;;;;;;;4.20;2.67;;;;;;;;;;5093728;28;20448;-66
2023/04/20 09:40:26;;;;;;;3.53;2.77;;;;;;;;;;5094477;28;20440;-66
2023/04/20 09:42:54;;;;;;;3.03;2.03;;;;;;;;;;5093818;28;20448;-66
2023/04/20 09:45:21;;;;;;;3.23;2.93;;;;;;;;;;5093818;28;20480;-66
2023/04/20 09:47:49;;;;;;;3.57;2.50;;;;;;;;;;5093899;28;20448;-66
2023/04/20 09:50:17;;;;;;;2.70;2.00;;;;;;;;;;5094764;28;20456;-67
2023/04/20 09:52:48;;;;;;;5.07;3.33;;;;;;;;;;5093564;28;21031;-67
2023/04/20 09:55:16;;;;;;;2.57;2.37;;;;;;;;;;5093912;28;20452;-68
2023/04/20 09:57:45;;;;;;;3.30;2.73;;;;;;;;;;5093603;28;20448;-66
2023/04/20 10:00:12;;;;;;;3.93;2.40;;;;;;;;;;5094040;28;20540;-68
2023/04/20 10:02:40;;;;;;;1.83;1.73;;;;;;;;;;5094288;28;20460;-66
2023/04/20 10:05:08;;;;;;;2.50;2.30;;;;;;;;;;5093603;28;21079;-66
2023/04/20 10:07:35;;;;;;;6.57;3.87;;;;;;;;;;5094273;28;20452;-66
2023/04/20 10:10:06;;;;;;;2.60;2.40;;;;;;;;;;5093422;28;20467;-66
2023/04/20 10:12:35;;;;;;;5.10;3.00;;;;;;;;;;5081041;28;20445;-68
2023/04/20 10:15:03;;;;;;;3.80;2.43;;;;;;;;;;5092140;28;20449;-66
2023/04/20 10:17:31;;;;;;;3.60;3.30;;;;;;;;;;5093734;28;20539;-66
2023/04/20 10:19:58;;;;;;;3.60;3.30;;;;;;;;;;5093161;28;20448;-67
2023/04/20 10:22:29;;;;;;;3.50;2.37;;;;;;;;;;5093845;28;20537;-66
2023/04/20 10:24:56;;;;;;;3.13;2.43;;;;;;;;;;5092694;28;20472;-66
2023/04/20 10:27:23;;;;;;;3.60;2.97;;;;;;;;;;5093595;28;20448;-66
2023/04/20 10:29:52;;;;;;;4.77;2.33;;;;;;;;;;5092660;28;20456;-66
2023/04/20 10:32:23;;;;;;;3.27;2.60;;;;;;;;;;5093339;28;20453;-66
2023/04/20 10:35:00;;;;;;;4.07;2.93;;;;;;;;;;5092180;28;20441;-65
2023/04/20 10:37:28;;;;;;;3.07;2.77;;;;;;;;;;5093284;28;20450;-66
2023/04/20 10:39:55;;;;;;;4.60;3.10;;;;;;;;;;5092548;28;20993;-66
2023/04/20 10:42:22;;;;;;;2.73;2.50;;;;;;;;;;5093161;28;20445;-66
2023/04/20 10:44:50;;;;;;;2.80;2.20;;;;;;;;;;5092514;28;20484;-66
2023/04/20 10:47:18;;;;;;;5.73;1.70;;;;;;;;;;5092994;28;20444;-66
2023/04/20 10:49:45;;;;;;;2.40;1.93;;;;;;;;;;5092549;28;20452;-66
2023/04/20 10:52:13;;;;;;;3.30;2.70;;;;;;;;;;5092858;28;20448;-66
2023/04/20 10:54:41;;;;;;;3.80;3.07;;;;;;;;;;5092977;28;20456;-66
2023/04/20 10:57:08;;;;;;;3.93;3.13;;;;;;;;;;5093092;28;20449;-66
2023/04/20 10:59:36;;;;;;;2.17;1.97;;;;;;;;;;5093191;28;20452;-66
2023/04/20 11:02:07;;;;;;;2.20;2.00;;;;;;;;;;5092508;28;20452;-66
2023/04/20 11:04:35;;;;;;;3.00;2.10;;;;;;;;;;5092661;28;20436;-67
2023/04/20 11:07:07;;;;;;;3.93;2.17;;;;;;;;;;5092486;28;20531;-66
2023/04/20 11:09:37;;;;;;;2.77;2.00;;;;;;;;;;5092877;28;20449;-66
2023/04/20 11:12:05;;;;;;;3.33;2.40;;;;;;;;;;5092169;28;20448;-67
2023/04/20 11:14:33;;;;;;;2.37;2.10;;;;;;;;;;5092562;28;20459;-66
2023/04/20 11:17:00;;;;;;;3.10;2.00;;;;;;;;;;5092271;28;20441;-66
2023/04/20 11:19:28;;;;;;;7.37;3.70;;;;;;;;;;5092940;28;20460;-66
2023/04/20 11:21:56;;;;;;;3.33;2.17;;;;;;;;;;5092251;28;20473;-66
2023/04/20 11:24:24;;;;;;;2.73;2.20;;;;;;;;;;5092260;28;20461;-66
2023/04/20 11:26:53;;;;;;;2.23;1.73;;;;;;;;;;5091192;28;20476;-66
2023/04/20 11:29:30;;;;;;;4.10;2.60;;;;;;;;;;5092622;28;20445;-66
2023/04/20 11:31:57;;;;;;;2.20;2.00;;;;;;;;;;5091559;28;20450;-66
2023/04/20 11:34:24;;;;;;;4.10;2.80;;;;;;;;;;5091822;28;20460;-66
2023/04/20 11:36:52;;;;;;;3.23;2.93;;;;;;;;;;5091983;28;20509;-66
2023/04/20 11:39:28;;;;;;;2.93;2.60;;;;;;;;;;5092338;28;20540;-66
2023/04/20 11:41:56;;;;;;;3.30;2.03;;;;;;;;;;5091894;28;20483;-66
2023/04/20 11:44:24;;;;;;;4.10;2.80;;;;;;;;;;5091559;28;20460;-66
2023/04/20 11:46:53;;;;;;;2.77;2.50;;;;;;;;;;5091175;28;20850;-66
2023/04/20 11:49:20;;;;;;;3.50;2.40;;;;;;;;;;5091700;28;20456;-66
2023/04/20 11:51:48;;;;;;;2.40;2.20;;;;;;;;;;5091608;28;20444;-66
2023/04/20 11:54:15;;;;;;;3.33;2.20;;;;;;;;;;5091706;28;20499;-66
2023/04/20 11:56:44;;;;;;;3.53;2.70;;;;;;;;;;5091413;28;20456;-68
2023/04/20 11:59:12;;;;;;;3.13;2.20;;;;;;;;;;5091799;28;20467;-66
2023/04/20 12:01:40;;;;;;;2.73;2.30;;;;;;;;;;5092375;28;20471;-66
2023/04/20 12:04:07;;;;;;;4.10;2.67;;;;;;;;;;5091619;28;20441;-66
2023/04/20 12:06:34;;;;;;;3.43;2.83;;;;;;;;;;5091854;28;20484;-67
2023/04/20 12:09:01;;;;;;;3.57;3.10;;;;;;;;;;5091110;28;20808;-66
2023/04/20 12:11:29;;;;;;;3.70;2.70;;;;;;;;;;5091597;28;20441;-66
2023/04/20 12:13:59;;;;;;;3.77;2.20;;;;;;;;;;5091234;28;20471;-66
2023/04/20 12:16:26;;;;;;;4.33;3.30;;;;;;;;;;5092096;28;20444;-68
2023/04/20 12:18:53;;;;;;;3.93;2.63;;;;;;;;;;5090900;28;20534;-66
2023/04/20 12:21:20;;;;;;;3.83;3.13;;;;;;;;;;5091714;28;20838;-66
2023/04/20 12:23:48;;;;;;;6.03;3.53;;;;;;;;;;5090819;28;20947;-66
2023/04/20 12:26:15;;;;;;;4.13;2.50;;;;;;;;;;5091177;28;20480;-66
2023/04/20 12:28:43;;;;;;;4.23;2.40;;;;;;;;;;5077966;28;20459;-67
2023/04/20 12:31:12;;;;;;;3.77;2.53;;;;;;;;;;5091397;28;20480;-66
2023/04/20 12:33:39;;;;;;;4.60;2.73;;;;;;;;;;5091779;28;20444;-66
2023/04/20 12:36:06;;;;;;;2.40;1.57;;;;;;;;;;5090866;28;20448;-66
2023/04/20 12:38:34;;;;;;;4.93;3.63;;;;;;;;;;5090863;28;20449;-67
2023/04/20 12:41:01;;;;;;;4.83;3.03;;;;;;;;;;5090516;28;20448;-66
2023/04/20 12:43:29;;;;;;;5.00;3.20;;;;;;;;;;5091440;28;20448;-66
2023/04/20 12:45:56;;;;;;;5.20;3.87;;;;;;;;;;5090350;28;20480;-66
2023/04/20 12:48:25;;;;;;;3.77;2.37;;;;;;;;;;5088063;28;20460;-66
2023/04/20 12:50:52;;;;;;;3.40;2.80;;;;;;;;;;5092495;28;20453;-66
2023/04/20 12:53:19;;;;;;;5.40;3.47;;;;;;;;;;5079285;28;20445;-66
2023/04/20 12:55:46;;;;;;;4.27;2.93;;;;;;;;;;5090239;28;20448;-67
2023/04/20 12:58:14;;;;;;;7.67;3.40;;;;;;;;;;5087066;28;20433;-68
2023/04/20 13:00:42;;;;;;;3.17;2.87;;;;;;;;;;5090515;28;20502;-76
2023/04/20 13:03:09;;;;;;;2.73;2.50;;;;;;;;;;5091131;28;20782;-66
2023/04/20 13:05:38;;;;;;;4.30;3.90;;;;;;;;;;5090759;28;20889;-66
2023/04/20 13:08:05;;;;;;;2.80;2.20;;;;;;;;;;5090235;28;20455;-67
2023/04/20 13:10:32;;;;;;;4.40;2.70;;;;;;;;;;5090817;28;20444;-67
2023/04/20 13:13:00;;;;;;;2.40;2.13;;;;;;;;;;5090289;28;20950;-66
2023/04/20 13:15:28;;;;;;;2.57;2.37;;;;;;;;;;5090641;28;20460;-67
2023/04/20 13:17:55;;;;;;;4.10;2.90;;;;;;;;;;5090843;28;20444;-68
2023/04/20 13:20:22;;;;;;;2.17;1.97;;;;;;;;;;5090125;28;20468;-67
2023/04/20 13:22:51;;;;;;;2.93;2.07;;;;;;;;;;5089524;28;20440;-67
2023/04/20 13:25:18;;;;;;;3.53;2.53;;;;;;;;;;5089640;28;20439;-67
2023/04/20 13:27:45;;;;;;;3.97;1.93;;;;;;;;;;5089938;28;20448;-67
2023/04/20 13:30:13;;;;;;;2.30;2.10;;;;;;;;;;5090569;28;20444;-70
2023/04/20 13:32:40;;;;;;;5.13;2.80;;;;;;;;;;5090759;28;20444;-67
2023/04/20 13:35:11;;;;;;;2.57;2.23;;;;;;;;;;5090639;28;20454;-67
2023/04/20 13:37:38;;;;;;;3.87;2.13;;;;;;;;;;5091055;28;20440;-67
2023/04/20 13:40:07;;;;;;;2.17;1.97;;;;;;;;;;5090096;28;20452;-66
2023/04/20 13:42:35;;;;;;;4.13;3.20;;;;;;;;;;5090280;28;20455;-67
2023/04/20 13:45:02;;;;;;;3.80;2.50;;;;;;;;;;5089694;28;20506;-65
2023/04/20 13:47:29;;;;;;;4.23;2.10;;;;;;;;;;5085589;28;20484;-66
2023/04/20 13:49:56;;;;;;;2.43;1.90;;;;;;;;;;5087592;28;20459;-67
2023/04/20 13:52:23;;;;;;;4.47;2.57;;;;;;;;;;5091377;28;20456;-67
2023/04/20 13:54:50;;;;;;;4.10;2.00;;;;;;;;;;5090606;28;20459;-66
2023/04/20 13:57:19;;;;;;;2.40;2.17;;;;;;;;;;5091768;28;20456;-67
2023/04/20 13:59:46;;;;;;;2.77;1.87;;;;;;;;;;5090696;28;20454;-66
2023/04/20 14:02:13;;;;;;;3.90;2.10;;;;;;;;;;5090981;28;20478;-67
2023/04/20 14:04:40;;;;;;;2.93;2.20;;;;;;;;;;5091456;28;20444;-66
2023/04/20 14:07:07;;;;;;;3.37;3.07;;;;;;;;;;5089951;28;20480;-66
2023/04/20 14:09:34;;;;;;;2.37;1.77;;;;;;;;;;5089644;28;20457;-66
2023/04/20 14:12:02;;;;;;;2.13;1.93;;;;;;;;;;5089608;28;20449;-69
2023/04/20 14:14:30;;;;;;;4.83;2.70;;;;;;;;;;5090353;28;20449;-66
2023/04/20 14:16:57;;;;;;;3.00;2.20;;;;;;;;;;5090405;28;20451;-65
2023/04/20 14:19:24;;;;;;;3.17;2.67;;;;;;;;;;5090772;28;20461;-65
2023/04/20 14:21:51;;;;;;;3.80;2.30;;;;;;;;;;5090693;28;20480;-67
2023/04/20 14:24:19;;;;;;;3.93;2.07;;;;;;;;;;5088443;28;20935;-66
2023/04/20 14:26:46;;;;;;;3.70;1.60;;;;;;;;;;5089750;28;20480;-67
2023/04/20 14:29:13;;;;;;;2.00;1.90;;;;;;;;;;5090357;28;20969;-67
2023/04/20 14:31:41;;;;;;;5.80;2.20;;;;;;;;;;5089774;28;20448;-66
2023/04/20 14:34:09;;;;;;;2.87;2.63;;;;;;;;;;5090224;28;20832;-66
2023/04/20 14:36:36;;;;;;;5.23;3.07;;;;;;;;;;5090433;28;20456;-66
2023/04/20 14:39:03;;;;;;;3.33;2.57;;;;;;;;;;5089984;28;20460;-68
2023/04/20 14:41:30;;;;;;;2.43;1.80;;;;;;;;;;5090740;28;20844;-66
2023/04/20 14:43:57;;;;;;;2.90;2.70;;;;;;;;;;5088300;28;20448;-66
2023/04/20 14:46:24;;;;;;;2.63;1.90;;;;;;;;;;5090736;28;20483;-66